createdAt,value
2019-06-27T00:00:28.687Z,151421.89
2019-06-27T00:02:57.089Z,151409.16
2019-06-27T00:05:25.611Z,151421.89
2019-06-27T00:07:54.069Z,151401.53
2019-06-27T00:10:23.306Z,151391.31
2019-06-27T00:12:51.754Z,151395.11
2019-06-27T00:15:20.168Z,151355.59
2019-06-27T00:17:48.674Z,151383.63
2019-06-27T00:20:17.255Z,151345.39
2019-06-27T00:22:46.097Z,151345.39
2019-06-27T00:25:14.681Z,151353.02
2019-06-27T00:27:43.126Z,151353.02
2019-06-27T00:30:13.385Z,151335.19
2019-06-27T00:32:41.834Z,151327.56
2019-06-27T00:35:10.683Z,151342.86
2019-06-27T00:37:39.122Z,151337.77
2019-06-27T00:40:08.400Z,151341.56
2019-06-27T00:42:36.810Z,151363.22
2019-06-27T00:45:06.791Z,151345.39
2019-06-27T00:47:35.207Z,151322.45
2019-06-27T00:50:09.324Z,151355.59
2019-06-27T00:52:37.860Z,151355.59
2019-06-27T00:55:07.308Z,151350.50
2019-06-27T00:57:36.060Z,151317.34
2019-06-27T01:00:07.759Z,151317.34
2019-06-27T01:02:36.260Z,151322.45
2019-06-27T01:05:06.638Z,151290.58
2019-06-27T01:07:35.125Z,151296.94
2019-06-27T01:10:05.303Z,151294.37
2019-06-27T01:12:33.805Z,151252.30
2019-06-27T01:15:02.315Z,151270.12
2019-06-27T01:17:31.109Z,151286.75
2019-06-27T01:19:59.537Z,151282.91
2019-06-27T01:22:27.958Z,151302.05
2019-06-27T01:24:56.462Z,151285.47
2019-06-27T01:27:29.999Z,151281.64
2019-06-27T01:29:55.029Z,151285.47
2019-06-27T01:32:23.470Z,151272.66
2019-06-27T01:34:51.891Z,151270.12
2019-06-27T01:37:20.311Z,151268.86
2019-06-27T01:39:48.748Z,151257.34
2019-06-27T01:42:17.164Z,151245.88
2019-06-27T01:44:52.964Z,151253.56
2019-06-27T01:47:21.371Z,151261.19
2019-06-27T01:49:49.783Z,151239.52
2019-06-27T01:52:18.225Z,151240.78
2019-06-27T01:54:46.737Z,151254.83
2019-06-27T01:57:15.159Z,151253.56
2019-06-27T01:59:43.598Z,151230.58
2019-06-27T02:02:12.066Z,151238.25
2019-06-27T02:04:40.522Z,151243.36
2019-06-27T02:07:09.004Z,151237.00
2019-06-27T02:09:37.437Z,151228.06
2019-06-27T02:12:05.964Z,151243.36
2019-06-27T02:14:34.385Z,151202.55
2019-06-27T02:17:02.820Z,151217.84
2019-06-27T02:19:31.253Z,151228.06
2019-06-27T02:21:59.679Z,151231.89
2019-06-27T02:24:28.125Z,151226.78
2019-06-27T02:26:56.542Z,151206.39
2019-06-27T02:29:24.987Z,151194.94
2019-06-27T02:31:53.424Z,151197.45
2019-06-27T02:34:21.839Z,151177.06
2019-06-27T02:36:50.301Z,151191.09
2019-06-27T02:39:19.011Z,151177.06
2019-06-27T02:41:47.490Z,151159.22
2019-06-27T02:44:15.925Z,151163.06
2019-06-27T02:46:44.353Z,151174.53
2019-06-27T02:49:12.854Z,151159.22
2019-06-27T02:51:41.325Z,151099.34
2019-06-27T02:54:09.742Z,151095.52
2019-06-27T02:56:38.200Z,151082.78
2019-06-27T02:59:06.637Z,151094.25
2019-06-27T03:01:35.099Z,151091.69
2019-06-27T03:04:03.541Z,151085.31
2019-06-27T03:06:31.951Z,151098.09
2019-06-27T03:09:00.445Z,151087.89
2019-06-27T03:11:28.867Z,151100.61
2019-06-27T03:13:57.292Z,151059.83
2019-06-27T03:16:25.734Z,151042.00
2019-06-27T03:18:54.175Z,151025.45
2019-06-27T03:21:22.597Z,151027.97
2019-06-27T03:23:51.095Z,150998.66
2019-06-27T03:26:19.549Z,150990.98
2019-06-27T03:28:53.087Z,150965.55
2019-06-27T03:31:18.144Z,150996.08
2019-06-27T03:33:46.544Z,150951.52
2019-06-27T03:36:15.008Z,150968.06
2019-06-27T03:38:43.433Z,150949.00
2019-06-27T03:41:11.979Z,150968.06
2019-06-27T03:43:40.407Z,150952.78
2019-06-27T03:46:08.835Z,150932.39
2019-06-27T03:48:37.239Z,150945.16
2019-06-27T03:51:05.667Z,150912.06
2019-06-27T03:53:34.128Z,150929.88
2019-06-27T03:56:02.557Z,150922.25
2019-06-27T03:58:31.005Z,150868.77
2019-06-27T04:00:59.391Z,150896.77
2019-06-27T04:03:27.837Z,150870.03
2019-06-27T04:05:56.321Z,150864.94
2019-06-27T04:08:24.797Z,150878.91
2019-06-27T04:10:53.303Z,150886.58
2019-06-27T04:13:21.728Z,150896.77
2019-06-27T04:15:50.169Z,150915.84
2019-06-27T04:18:18.591Z,150932.39
2019-06-27T04:20:47.028Z,150920.94
2019-06-27T04:23:15.466Z,150903.13
2019-06-27T04:25:43.867Z,150923.52
2019-06-27T04:28:12.372Z,150934.97
2019-06-27T04:30:40.798Z,150969.33
2019-06-27T04:33:09.236Z,150964.23
2019-06-27T04:35:37.666Z,150960.45
2019-06-27T04:38:06.151Z,150951.52
2019-06-27T04:40:34.565Z,150978.27
2019-06-27T04:43:05.808Z,150942.59
2019-06-27T04:45:33.144Z,150975.73
2019-06-27T04:48:01.552Z,150940.06
2019-06-27T04:50:29.991Z,150974.44
2019-06-27T04:52:58.410Z,150998.66
2019-06-27T04:55:26.839Z,150984.62
2019-06-27T04:57:55.267Z,150945.16
2019-06-27T05:00:29.165Z,150956.61
2019-06-27T05:02:57.834Z,150968.06
2019-06-27T05:05:26.406Z,151026.72
2019-06-27T05:07:55.006Z,151104.45
2019-06-27T05:10:23.469Z,151222.95
2019-06-27T05:12:52.339Z,151226.78
2019-06-27T05:15:20.750Z,151245.88
2019-06-27T05:17:49.188Z,151258.66
2019-06-27T05:20:17.689Z,151224.22
2019-06-27T05:22:46.174Z,151115.91
2019-06-27T05:25:14.675Z,151151.59
2019-06-27T05:27:43.180Z,151160.50
2019-06-27T05:30:13.765Z,151163.06
2019-06-27T05:32:42.288Z,151174.53
2019-06-27T05:35:10.746Z,151161.80
2019-06-27T05:37:39.194Z,151098.09
2019-06-27T05:40:08.812Z,151087.89
2019-06-27T05:42:37.236Z,151192.36
2019-06-27T05:45:06.902Z,151212.75
2019-06-27T05:47:35.389Z,151186.00
2019-06-27T05:50:06.322Z,151222.95
2019-06-27T05:52:34.707Z,151210.23
2019-06-27T05:55:03.382Z,151171.95
2019-06-27T05:57:31.819Z,151233.16
2019-06-27T06:00:00.247Z,151245.88
2019-06-27T06:02:28.683Z,151281.64
2019-06-27T06:04:57.125Z,151231.89
2019-06-27T06:07:25.609Z,151253.56
2019-06-27T06:09:54.098Z,151215.33
2019-06-27T06:12:22.616Z,151266.28
2019-06-27T06:14:50.993Z,151212.75
2019-06-27T06:17:19.431Z,151402.78
2019-06-27T06:19:47.850Z,151552.08
2019-06-27T06:22:16.255Z,151697.53
2019-06-27T06:24:44.697Z,151766.47
2019-06-27T06:27:13.125Z,151669.47
2019-06-27T06:29:41.567Z,151669.47
2019-06-27T06:32:10.055Z,151816.28
2019-06-27T06:34:38.487Z,151883.98
2019-06-27T06:37:08.177Z,151909.53
2019-06-27T06:39:36.709Z,151786.95
2019-06-27T06:42:05.217Z,151868.66
2019-06-27T06:44:33.643Z,151926.13
2019-06-27T06:47:02.064Z,151949.11
2019-06-27T06:49:30.553Z,151898.05
2019-06-27T06:51:58.984Z,151854.59
2019-06-27T06:54:27.400Z,151752.41
2019-06-27T06:56:55.815Z,151668.20
2019-06-27T06:59:24.239Z,151752.41
2019-06-27T07:01:52.662Z,151705.17
2019-06-27T07:04:21.101Z,151705.17
2019-06-27T07:06:50.009Z,151670.73
2019-06-27T07:09:18.535Z,151738.41
2019-06-27T07:11:46.949Z,151695.00
2019-06-27T07:14:15.375Z,151753.72
2019-06-27T07:16:43.818Z,151800.97
2019-06-27T07:19:12.207Z,151752.41
2019-06-27T07:21:40.632Z,151749.88
2019-06-27T07:24:09.071Z,151799.70
2019-06-27T07:26:37.509Z,151830.34
2019-06-27T07:29:05.942Z,151830.34
2019-06-27T07:31:34.374Z,151841.84
2019-06-27T07:34:02.805Z,152027.09
2019-06-27T07:36:31.210Z,152101.20
2019-06-27T07:38:59.648Z,152010.50
2019-06-27T07:41:28.062Z,152143.38
2019-06-27T07:43:56.644Z,152144.66
2019-06-27T07:46:26.050Z,152189.36
2019-06-27T07:48:54.756Z,151963.17
2019-06-27T07:51:23.186Z,152057.72
2019-06-27T07:53:51.595Z,152103.73
2019-06-27T07:56:20.013Z,152172.75
2019-06-27T07:58:48.442Z,152147.19
2019-06-27T08:01:33.700Z,152117.81
2019-06-27T08:03:47.027Z,152170.22
2019-06-27T08:06:15.459Z,152188.09
2019-06-27T08:08:43.892Z,152218.78
2019-06-27T08:11:12.317Z,152191.94
2019-06-27T08:13:40.727Z,152234.17
2019-06-27T08:16:09.164Z,152267.41
2019-06-27T08:18:37.577Z,152167.64
2019-06-27T08:21:06.561Z,152131.84
2019-06-27T08:23:41.531Z,152009.17
2019-06-27T08:26:05.199Z,152011.77
2019-06-27T08:28:33.644Z,152021.98
2019-06-27T08:31:02.095Z,152047.55
2019-06-27T08:33:30.537Z,151926.13
2019-06-27T08:35:58.962Z,151926.13
2019-06-27T08:38:27.389Z,151869.91
2019-06-27T08:40:55.788Z,151963.17
2019-06-27T08:43:24.236Z,151882.72
2019-06-27T08:45:52.648Z,151882.72
2019-06-27T08:48:21.057Z,151947.84
2019-06-27T08:50:49.582Z,151942.73
2019-06-27T08:53:18.001Z,151970.81
2019-06-27T08:55:46.479Z,151970.81
2019-06-27T08:58:14.902Z,151970.81
2019-06-27T09:00:45.889Z,152032.20
2019-06-27T09:03:13.529Z,151975.94
2019-06-27T09:05:41.922Z,152025.83
2019-06-27T09:08:10.348Z,152078.17
2019-06-27T09:10:38.761Z,152047.55
2019-06-27T09:13:07.221Z,152059.03
2019-06-27T09:15:35.632Z,152078.17
2019-06-27T09:18:04.081Z,152033.47
2019-06-27T09:20:32.545Z,152106.31
2019-06-27T09:23:00.981Z,152057.72
2019-06-27T09:25:29.424Z,152090.97
2019-06-27T09:27:57.849Z,152083.28
2019-06-27T09:30:26.412Z,152102.47
2019-06-27T09:32:55.121Z,152102.47
2019-06-27T09:35:25.099Z,152065.41
2019-06-27T09:37:53.529Z,152060.30
2019-06-27T09:40:23.391Z,152129.30
2019-06-27T09:42:51.837Z,152121.61
2019-06-27T09:45:21.407Z,152106.31
2019-06-27T09:47:49.957Z,152145.91
2019-06-27T09:50:21.522Z,152166.37
2019-06-27T09:52:48.629Z,152208.55
2019-06-27T09:55:17.987Z,152213.66
2019-06-27T09:57:46.410Z,152241.83
2019-06-27T10:00:15.682Z,152241.83
2019-06-27T10:02:44.114Z,152226.48
2019-06-27T10:05:13.225Z,152229.06
2019-06-27T10:07:41.724Z,152272.52
2019-06-27T10:10:10.387Z,152263.55
2019-06-27T10:12:42.704Z,152264.81
2019-06-27T10:15:10.095Z,152315.97
2019-06-27T10:17:38.524Z,152292.98
2019-06-27T10:20:08.308Z,152315.97
2019-06-27T10:22:36.788Z,152351.78
2019-06-27T10:25:06.845Z,152328.75
2019-06-27T10:27:35.299Z,152383.77
2019-06-27T10:30:05.755Z,152354.33
2019-06-27T10:32:34.171Z,152402.91
2019-06-27T10:35:02.744Z,152411.88
2019-06-27T10:37:31.201Z,152489.92
2019-06-27T10:39:59.673Z,152500.16
2019-06-27T10:42:28.191Z,152507.86
2019-06-27T10:44:56.619Z,152512.98
2019-06-27T10:47:25.045Z,152525.75
2019-06-27T10:49:53.456Z,152473.30
2019-06-27T10:52:21.910Z,152512.98
2019-06-27T10:54:50.327Z,152518.09
2019-06-27T10:57:18.732Z,152542.37
2019-06-27T10:59:47.209Z,152552.61
2019-06-27T11:02:15.629Z,152498.89
2019-06-27T11:04:44.040Z,152541.11
2019-06-27T11:07:12.479Z,152573.09
2019-06-27T11:09:40.872Z,152551.34
2019-06-27T11:12:09.297Z,152569.25
2019-06-27T11:14:37.760Z,152576.94
2019-06-27T11:17:06.140Z,152541.11
2019-06-27T11:19:34.574Z,152570.52
2019-06-27T11:22:02.996Z,152597.38
2019-06-27T11:24:31.414Z,152658.88
2019-06-27T11:26:59.862Z,152676.78
2019-06-27T11:29:28.265Z,152616.59
2019-06-27T11:31:56.711Z,152624.25
2019-06-27T11:34:25.148Z,152661.41
2019-06-27T11:36:53.556Z,152679.36
2019-06-27T11:39:23.351Z,152651.22
2019-06-27T11:41:52.238Z,152720.28
2019-06-27T11:44:20.654Z,152710.09
2019-06-27T11:46:49.101Z,152648.63
2019-06-27T11:49:17.511Z,152635.84
2019-06-27T11:51:46.009Z,152635.84
2019-06-27T11:54:14.452Z,152640.97
2019-06-27T11:56:42.875Z,152634.53
2019-06-27T11:59:11.293Z,152675.50
2019-06-27T12:01:39.733Z,152626.83
2019-06-27T12:04:08.121Z,152664.00
2019-06-27T12:06:36.547Z,152646.09
2019-06-27T12:09:08.996Z,152697.25
2019-06-27T12:11:37.399Z,152697.25
2019-06-27T12:14:05.835Z,152702.38
2019-06-27T12:16:34.260Z,152734.38
2019-06-27T12:19:02.760Z,152748.47
2019-06-27T12:21:31.162Z,152743.34
2019-06-27T12:23:59.575Z,152699.84
2019-06-27T12:26:28.000Z,152710.09
2019-06-27T12:28:56.399Z,152724.14
2019-06-27T12:31:25.178Z,152727.98
2019-06-27T12:34:06.113Z,152722.88
2019-06-27T12:36:23.764Z,152753.59
2019-06-27T12:38:52.268Z,152790.72
2019-06-27T12:41:20.725Z,152720.28
2019-06-27T12:43:49.151Z,152689.59
2019-06-27T12:46:17.575Z,152730.53
2019-06-27T12:48:48.768Z,152699.84
2019-06-27T12:51:17.194Z,152717.75
2019-06-27T12:53:45.701Z,152738.23
2019-06-27T12:56:14.595Z,152712.62
2019-06-27T12:58:42.998Z,152671.66
2019-06-27T13:01:11.419Z,152707.50
2019-06-27T13:03:42.768Z,152662.72
2019-06-27T13:06:11.212Z,152726.72
2019-06-27T13:08:39.693Z,152697.25
2019-06-27T13:11:08.130Z,152713.89
2019-06-27T13:13:36.572Z,152719.02
2019-06-27T13:16:05.054Z,152721.59
2019-06-27T13:18:33.501Z,152704.97
2019-06-27T13:21:02.010Z,152707.50
2019-06-27T13:23:30.477Z,152652.48
2019-06-27T13:25:58.906Z,152679.36
2019-06-27T13:28:27.345Z,152715.16
2019-06-27T13:30:56.128Z,152635.84
2019-06-27T13:33:24.618Z,152681.89
2019-06-27T13:35:53.047Z,152689.59
2019-06-27T13:38:21.465Z,152642.25
2019-06-27T13:40:49.957Z,152683.16
2019-06-27T13:43:18.449Z,152717.75
2019-06-27T13:45:46.874Z,152689.59
2019-06-27T13:48:15.303Z,152722.88
2019-06-27T13:50:43.842Z,152689.59
2019-06-27T13:53:12.287Z,152674.23
2019-06-27T13:55:40.705Z,152658.88
2019-06-27T13:58:09.397Z,152640.97
2019-06-27T14:00:47.113Z,152619.17
2019-06-27T14:03:15.553Z,152679.36
2019-06-27T14:05:44.029Z,152701.11
2019-06-27T14:08:12.508Z,152630.69
2019-06-27T14:10:40.949Z,152610.20
2019-06-27T14:13:09.382Z,152657.61
2019-06-27T14:15:37.862Z,152676.78
2019-06-27T14:18:06.308Z,152653.75
2019-06-27T14:20:34.723Z,152634.53
2019-06-27T14:23:03.184Z,152640.97
2019-06-27T14:25:31.688Z,152660.14
2019-06-27T14:28:00.148Z,152661.41
2019-06-27T14:30:28.641Z,152666.53
2019-06-27T14:32:57.092Z,152679.36
2019-06-27T14:35:25.501Z,152690.87
2019-06-27T14:37:53.925Z,152666.53
2019-06-27T14:40:22.677Z,152689.59
2019-06-27T14:42:51.177Z,152658.88
2019-06-27T14:45:19.847Z,152678.09
2019-06-27T14:47:49.035Z,152684.47
2019-06-27T14:50:17.572Z,152697.25
2019-06-27T14:52:45.999Z,152660.14
2019-06-27T14:55:15.055Z,152629.38
2019-06-27T14:57:43.481Z,152643.50
2019-06-27T15:00:12.281Z,152620.44
2019-06-27T15:02:40.748Z,152661.41
2019-06-27T15:05:11.195Z,152653.75
2019-06-27T15:07:39.633Z,152644.78
2019-06-27T15:10:09.399Z,152635.84
2019-06-27T15:12:38.051Z,152633.27
2019-06-27T15:15:07.507Z,152638.39
2019-06-27T15:17:35.928Z,152648.63
2019-06-27T15:20:08.861Z,152625.56
2019-06-27T15:22:37.334Z,152615.33
2019-06-27T15:25:07.608Z,152610.20
2019-06-27T15:27:36.116Z,152642.25
2019-06-27T15:30:09.482Z,152619.17
2019-06-27T15:32:37.970Z,152592.31
2019-06-27T15:35:07.121Z,152584.59
2019-06-27T15:37:35.666Z,152594.84
2019-06-27T15:40:06.025Z,152565.39
2019-06-27T15:42:34.537Z,152537.25
2019-06-27T15:45:09.555Z,152535.98
2019-06-27T15:47:38.096Z,152559.00
2019-06-27T15:50:07.152Z,152578.22
2019-06-27T15:52:35.568Z,152570.52
2019-06-27T15:55:10.808Z,152543.64
2019-06-27T15:57:37.961Z,152553.88
2019-06-27T16:00:08.135Z,152506.55
2019-06-27T16:02:37.118Z,152533.41
2019-06-27T16:05:06.134Z,152520.62
2019-06-27T16:07:34.659Z,152477.14
2019-06-27T16:10:03.890Z,152493.78
2019-06-27T16:12:32.304Z,152505.28
2019-06-27T16:15:00.748Z,152418.27
2019-06-27T16:17:29.213Z,152443.91
2019-06-27T16:19:57.630Z,152442.64
2019-06-27T16:22:26.154Z,152418.27
2019-06-27T16:24:54.614Z,152440.06
2019-06-27T16:27:23.036Z,152410.61
2019-06-27T16:29:51.452Z,152419.53
2019-06-27T16:32:19.892Z,152432.41
2019-06-27T16:34:48.303Z,152385.03
2019-06-27T16:37:16.865Z,152338.97
2019-06-27T16:39:45.342Z,152310.86
2019-06-27T16:42:13.742Z,152337.70
2019-06-27T16:44:42.261Z,152327.47
2019-06-27T16:47:10.891Z,152321.09
2019-06-27T16:49:39.272Z,152305.75
2019-06-27T16:52:07.694Z,152331.33
2019-06-27T16:54:36.236Z,152291.66
2019-06-27T16:57:04.843Z,152310.86
2019-06-27T16:59:33.511Z,152277.63
2019-06-27T17:02:02.049Z,152258.44
2019-06-27T17:04:30.676Z,152217.47
2019-06-27T17:06:59.097Z,152249.47
2019-06-27T17:09:27.814Z,152230.33
2019-06-27T17:11:56.372Z,152239.25
2019-06-27T17:14:24.792Z,152217.47
2019-06-27T17:16:53.214Z,152197.06
2019-06-27T17:19:21.927Z,152225.22
2019-06-27T17:21:50.343Z,152199.59
2019-06-27T17:24:19.176Z,152200.86
2019-06-27T17:26:47.610Z,152207.23
2019-06-27T17:29:16.037Z,152167.64
2019-06-27T17:31:46.073Z,152166.37
2019-06-27T17:34:14.519Z,152148.44
2019-06-27T17:36:56.542Z,152149.77
2019-06-27T17:39:13.250Z,152112.69
2019-06-27T17:41:41.643Z,152112.69
2019-06-27T17:44:10.089Z,152088.41
2019-06-27T17:46:38.592Z,152088.41
2019-06-27T17:49:06.986Z,152075.64
2019-06-27T17:51:35.493Z,152075.64
2019-06-27T17:54:03.972Z,152078.17
2019-06-27T17:56:32.455Z,152078.17
2019-06-27T17:59:00.963Z,152074.37
2019-06-27T18:01:29.901Z,152060.30
2019-06-27T18:03:58.325Z,152032.20
2019-06-27T18:06:26.747Z,152032.20
2019-06-27T18:08:55.243Z,152023.25
2019-06-27T18:11:23.727Z,152023.25
2019-06-27T18:13:52.126Z,152034.75
2019-06-27T18:16:20.557Z,152027.09
2019-06-27T18:18:49.000Z,152027.09
2019-06-27T18:21:17.490Z,151996.38
2019-06-27T18:23:45.921Z,151967.02
2019-06-27T18:26:14.343Z,151967.02
2019-06-27T18:28:42.769Z,151950.38
2019-06-27T18:31:11.529Z,151890.36
2019-06-27T18:33:39.927Z,151909.53
2019-06-27T18:36:08.392Z,151901.84
2019-06-27T18:38:36.831Z,151889.09
2019-06-27T18:41:05.320Z,151887.83
2019-06-27T18:43:33.794Z,151885.25
2019-06-27T18:46:02.184Z,151873.77
2019-06-27T18:48:30.637Z,151872.50
2019-06-27T18:50:59.149Z,151843.09
2019-06-27T18:53:27.551Z,151809.91
2019-06-27T18:55:56.016Z,151776.73
2019-06-27T18:58:24.447Z,151730.72
2019-06-27T19:00:52.905Z,151758.83
2019-06-27T19:03:21.365Z,151733.28
2019-06-27T19:05:49.936Z,151709.02
2019-06-27T19:08:18.375Z,151712.86
2019-06-27T19:10:46.815Z,151692.42
2019-06-27T19:13:15.233Z,151669.47
2019-06-27T19:15:43.670Z,151651.56
2019-06-27T19:18:29.965Z,151641.36
2019-06-27T19:21:00.082Z,151612.03
2019-06-27T19:23:33.192Z,151615.88
2019-06-27T19:26:02.021Z,151605.66
2019-06-27T19:28:30.441Z,151572.50
2019-06-27T19:30:58.877Z,151530.34
2019-06-27T19:33:27.306Z,151513.77
2019-06-27T19:35:55.725Z,151506.08
2019-06-27T19:38:26.293Z,151490.77
2019-06-27T19:40:54.786Z,151483.12
2019-06-27T19:43:27.638Z,151472.92
2019-06-27T19:45:53.382Z,151453.78
2019-06-27T19:48:21.806Z,151441.03
2019-06-27T19:50:50.239Z,151455.08
2019-06-27T19:53:18.735Z,151416.78
2019-06-27T19:55:47.160Z,151439.77
2019-06-27T19:58:15.602Z,151430.83
2019-06-27T20:00:44.559Z,151396.42
2019-06-27T20:03:13.459Z,151398.94
2019-06-27T20:05:43.669Z,151369.64
2019-06-27T20:08:19.435Z,151364.53
2019-06-27T20:10:46.226Z,151351.75
2019-06-27T20:13:17.557Z,151363.22
2019-06-27T20:15:46.977Z,151345.39
2019-06-27T20:18:15.630Z,151345.39
2019-06-27T20:20:44.208Z,151304.58
2019-06-27T20:23:13.248Z,151295.69
2019-06-27T20:25:42.521Z,151284.22
2019-06-27T20:28:12.299Z,151286.75
2019-06-27T20:30:44.293Z,151245.88
2019-06-27T20:33:13.210Z,151253.56
2019-06-27T20:35:42.353Z,151252.30
2019-06-27T20:38:10.902Z,151247.19
2019-06-27T20:40:39.390Z,151226.78
2019-06-27T20:43:07.840Z,151189.83
2019-06-27T20:45:36.931Z,151189.83
2019-06-27T20:48:05.373Z,151194.94
2019-06-27T20:50:33.946Z,151184.72
2019-06-27T20:53:02.360Z,151189.83
2019-06-27T20:55:31.029Z,151163.06
2019-06-27T20:58:00.225Z,151154.13
2019-06-27T21:00:34.992Z,151103.19
2019-06-27T21:03:04.705Z,151084.06
2019-06-27T21:05:33.488Z,151100.61
2019-06-27T21:08:01.925Z,151086.58
2019-06-27T21:10:30.357Z,151077.69
2019-06-27T21:12:58.778Z,151064.92
2019-06-27T21:15:27.281Z,151049.62
2019-06-27T21:17:56.009Z,151036.91
2019-06-27T21:20:24.601Z,151052.20
2019-06-27T21:22:53.029Z,151049.62
2019-06-27T21:25:21.571Z,151044.58
2019-06-27T21:27:50.007Z,151034.38
2019-06-27T21:30:19.152Z,151011.42
2019-06-27T21:32:48.565Z,151015.25
2019-06-27T21:35:17.261Z,151010.16
2019-06-27T21:37:45.705Z,151002.48
2019-06-27T21:40:20.249Z,151007.59
2019-06-27T21:42:48.667Z,150973.17
2019-06-27T21:45:17.631Z,150998.66
2019-06-27T21:47:46.066Z,150980.84
2019-06-27T21:50:14.600Z,150969.33
2019-06-27T21:52:43.023Z,150969.33
2019-06-27T21:55:11.601Z,150977.00
2019-06-27T21:57:40.034Z,150947.69
2019-06-27T22:00:09.317Z,150947.69
2019-06-27T22:02:37.782Z,150949.00
2019-06-27T22:05:07.127Z,150934.97
2019-06-27T22:07:35.788Z,150923.52
2019-06-27T22:10:06.290Z,150899.30
2019-06-27T22:12:35.000Z,150895.50
2019-06-27T22:15:04.195Z,150892.94
2019-06-27T22:17:32.653Z,150872.55
2019-06-27T22:20:14.550Z,150892.94
2019-06-27T22:22:31.385Z,150906.97
2019-06-27T22:24:59.815Z,150882.75
2019-06-27T22:27:28.262Z,150875.13
2019-06-27T22:29:56.676Z,150903.13
2019-06-27T22:32:25.359Z,150880.22
2019-06-27T22:34:53.796Z,150898.03
2019-06-27T22:37:24.347Z,150863.67
2019-06-27T22:40:11.892Z,150882.75
2019-06-27T22:42:59.461Z,150890.41
2019-06-27T22:45:45.955Z,150901.87
2019-06-27T22:48:14.085Z,150900.56
2019-06-27T22:50:46.659Z,150919.69
2019-06-27T22:53:16.758Z,150910.75
2019-06-27T22:55:45.170Z,150924.78
2019-06-27T22:58:13.609Z,150931.13
2019-06-27T23:00:42.035Z,150912.06
2019-06-27T23:03:10.512Z,150901.87
2019-06-27T23:05:39.794Z,150919.69
2019-06-27T23:08:08.224Z,150919.69
2019-06-27T23:10:36.676Z,150932.39
2019-06-27T23:13:05.244Z,150940.06
2019-06-27T23:15:33.679Z,150950.25
2019-06-27T23:18:02.131Z,150932.39
2019-06-27T23:20:30.546Z,150929.88
2019-06-27T23:22:59.036Z,150932.39
2019-06-27T23:25:27.525Z,150940.06
2019-06-27T23:27:55.941Z,150951.52
2019-06-27T23:30:24.423Z,150929.88
2019-06-27T23:32:52.882Z,150929.88
2019-06-27T23:35:21.320Z,150934.97
2019-06-27T23:37:49.755Z,150923.52
2019-06-27T23:40:19.432Z,150919.69
2019-06-27T23:42:47.868Z,150919.69
2019-06-27T23:45:16.288Z,150917.16
2019-06-27T23:47:44.767Z,150906.97
2019-06-27T23:50:13.535Z,150899.30
2019-06-27T23:52:41.958Z,150903.13
2019-06-27T23:55:10.517Z,150906.97
2019-06-27T23:57:38.941Z,150901.87
